Miao-li, Taiwan
Current Conditions -  °F | °C
As of 12:30 PM on Thursday 23 Oct 2014 (Local Time) from RCMQ Reporting Station
Scattered Clouds Scattered Clouds  
Wind Chill: 82°   Ceiling: Unl
Heat Index: 83°   Visibility: 6mi
Dew Point: 61°   Wind: 15mph
Humidity: 48%   Direction: 20°NNE
Pressure: 29.97"   Gusts: 26mph
Location:  24.57°N, 120.82°E
Report Text: RCMQ 230430Z 02013G23KT 9999 FEW012 SCT100 28/16 Q1015 NOSIG RMK A2998
Loading
Personal Weather Stations






























Interactive Weather Map
Tropical Storm Tracking
New forecast layout! Learn more

10-Day Weather Forecast

Advertisements
Track Severe Weather on mobile